sensor_id;sensor_type;location;lat;lon;timestamp;temperature;humidity
46752;DHT22;32497;48.936;9.270;2022-09-27T00:03:01;9.60;90.60
46752;DHT22;32497;48.936;9.270;2022-09-27T00:08:04;9.60;90.80
46752;DHT22;32497;48.936;9.270;2022-09-27T00:13:05;9.60;90.50
46752;DHT22;32497;48.936;9.270;2022-09-27T00:18:06;9.60;91.00
46752;DHT22;32497;48.936;9.270;2022-09-27T00:23:09;9.60;90.90
46752;DHT22;32497;48.936;9.270;2022-09-27T00:28:10;9.70;91.40
46752;DHT22;32497;48.936;9.270;2022-09-27T00:33:11;9.70;91.00
46752;DHT22;32497;48.936;9.270;2022-09-27T00:38:13;9.70;91.20
46752;DHT22;32497;48.936;9.270;2022-09-27T00:43:17;9.70;90.50
46752;DHT22;32497;48.936;9.270;2022-09-27T00:48:22;9.70;91.10
46752;DHT22;32497;48.936;9.270;2022-09-27T00:53:29;9.70;90.70
46752;DHT22;32497;48.936;9.270;2022-09-27T00:58:34;9.70;90.60
46752;DHT22;32497;48.936;9.270;2022-09-27T01:03:39;9.70;90.80
46752;DHT22;32497;48.936;9.270;2022-09-27T01:08:44;9.70;90.80
46752;DHT22;32497;48.936;9.270;2022-09-27T01:14:00;9.70;90.70
46752;DHT22;32497;48.936;9.270;2022-09-27T01:19:15;9.70;90.40
46752;DHT22;32497;48.936;9.270;2022-09-27T01:24:46;9.70;91.00
46752;DHT22;32497;48.936;9.270;2022-09-27T01:35:12;9.80;90.20
46752;DHT22;32497;48.936;9.270;2022-09-27T01:40:24;9.70;90.80
46752;DHT22;32497;48.936;9.270;2022-09-27T01:45:32;9.70;90.80
46752;DHT22;32497;48.936;9.270;2022-09-27T01:51:04;9.70;91.20
46752;DHT22;32497;48.936;9.270;2022-09-27T01:56:12;9.70;91.10
46752;DHT22;32497;48.936;9.270;2022-09-27T02:01:23;9.80;90.90
46752;DHT22;32497;48.936;9.270;2022-09-27T02:06:32;9.80;90.30
46752;DHT22;32497;48.936;9.270;2022-09-27T02:11:56;9.80;91.00
46752;DHT22;32497;48.936;9.270;2022-09-27T02:17:06;9.80;91.10
46752;DHT22;32497;48.936;9.270;2022-09-27T02:22:15;9.70;90.90
46752;DHT22;32497;48.936;9.270;2022-09-27T02:27:21;9.70;91.60
46752;DHT22;32497;48.936;9.270;2022-09-27T02:32:24;9.70;92.10
46752;DHT22;32497;48.936;9.270;2022-09-27T02:37:27;9.70;92.50
46752;DHT22;32497;48.936;9.270;2022-09-27T02:42:28;9.80;92.70
46752;DHT22;32497;48.936;9.270;2022-09-27T02:47:53;9.80;92.60
46752;DHT22;32497;48.936;9.270;2022-09-27T02:53:07;9.60;92.00
46752;DHT22;32497;48.936;9.270;2022-09-27T02:58:23;9.40;92.10
46752;DHT22;32497;48.936;9.270;2022-09-27T03:03:52;9.40;91.80
46752;DHT22;32497;48.936;9.270;2022-09-27T03:08:59;9.30;90.80
46752;DHT22;32497;48.936;9.270;2022-09-27T03:14:00;9.30;91.70
46752;DHT22;32497;48.936;9.270;2022-09-27T03:19:02;9.30;92.10
46752;DHT22;32497;48.936;9.270;2022-09-27T03:24:23;9.20;91.80
46752;DHT22;32497;48.936;9.270;2022-09-27T03:29:24;9.10;91.80
46752;DHT22;32497;48.936;9.270;2022-09-27T03:34:33;9.20;92.10
46752;DHT22;32497;48.936;9.270;2022-09-27T03:39:36;9.20;91.90
46752;DHT22;32497;48.936;9.270;2022-09-27T03:44:45;9.20;91.80
46752;DHT22;32497;48.936;9.270;2022-09-27T03:49:46;9.10;91.60
46752;DHT22;32497;48.936;9.270;2022-09-27T03:54:48;9.20;91.20
46752;DHT22;32497;48.936;9.270;2022-09-27T03:59:50;9.20;91.70
46752;DHT22;32497;48.936;9.270;2022-09-27T04:05:17;9.20;91.80
46752;DHT22;32497;48.936;9.270;2022-09-27T04:10:20;9.20;91.50
46752;DHT22;32497;48.936;9.270;2022-09-27T04:15:22;9.30;91.40
46752;DHT22;32497;48.936;9.270;2022-09-27T04:20:24;9.30;91.20
46752;DHT22;32497;48.936;9.270;2022-09-27T04:25:26;9.30;90.90
46752;DHT22;32497;48.936;9.270;2022-09-27T04:30:31;9.40;91.00
46752;DHT22;32497;48.936;9.270;2022-09-27T04:35:38;9.40;91.30
46752;DHT22;32497;48.936;9.270;2022-09-27T04:40:41;9.40;91.10
46752;DHT22;32497;48.936;9.270;2022-09-27T04:45:43;9.30;91.30
46752;DHT22;32497;48.936;9.270;2022-09-27T04:50:44;9.30;90.60
46752;DHT22;32497;48.936;9.270;2022-09-27T04:55:47;9.30;90.90
46752;DHT22;32497;48.936;9.270;2022-09-27T05:00:49;9.40;91.10
46752;DHT22;32497;48.936;9.270;2022-09-27T05:06:16;9.40;90.60
46752;DHT22;32497;48.936;9.270;2022-09-27T05:11:19;9.40;90.00
46752;DHT22;32497;48.936;9.270;2022-09-27T05:16:39;9.40;90.10
46752;DHT22;32497;48.936;9.270;2022-09-27T05:22:00;9.40;91.10
46752;DHT22;32497;48.936;9.270;2022-09-27T05:27:03;9.30;90.30
46752;DHT22;32497;48.936;9.270;2022-09-27T05:32:04;9.30;90.10
46752;DHT22;32497;48.936;9.270;2022-09-27T05:37:06;9.40;90.10
46752;DHT22;32497;48.936;9.270;2022-09-27T05:42:13;9.40;89.80
46752;DHT22;32497;48.936;9.270;2022-09-27T05:47:14;9.30;90.20
46752;DHT22;32497;48.936;9.270;2022-09-27T05:52:16;9.40;89.80
46752;DHT22;32497;48.936;9.270;2022-09-27T05:57:19;9.30;89.80
46752;DHT22;32497;48.936;9.270;2022-09-27T06:02:25;9.20;89.10
46752;DHT22;32497;48.936;9.270;2022-09-27T06:07:44;9.30;88.60
46752;DHT22;32497;48.936;9.270;2022-09-27T06:12:58;9.30;88.80
46752;DHT22;32497;48.936;9.270;2022-09-27T06:18:15;9.40;88.40
46752;DHT22;32497;48.936;9.270;2022-09-27T06:23:19;9.50;88.60
46752;DHT22;32497;48.936;9.270;2022-09-27T06:28:24;9.50;87.80
46752;DHT22;32497;48.936;9.270;2022-09-27T06:33:29;9.60;88.00
46752;DHT22;32497;48.936;9.270;2022-09-27T06:38:34;9.50;88.10
46752;DHT22;32497;48.936;9.270;2022-09-27T06:43:48;9.60;88.30
46752;DHT22;32497;48.936;9.270;2022-09-27T06:49:08;9.60;87.60
46752;DHT22;32497;48.936;9.270;2022-09-27T06:54:10;9.70;88.20
46752;DHT22;32497;48.936;9.270;2022-09-27T06:59:12;9.60;88.40
46752;DHT22;32497;48.936;9.270;2022-09-27T07:04:16;9.60;86.80
46752;DHT22;32497;48.936;9.270;2022-09-27T07:09:32;9.60;87.80
46752;DHT22;32497;48.936;9.270;2022-09-27T07:14:35;9.60;88.10
46752;DHT22;32497;48.936;9.270;2022-09-27T07:19:38;9.60;87.20
46752;DHT22;32497;48.936;9.270;2022-09-27T07:24:41;9.50;87.70
46752;DHT22;32497;48.936;9.270;2022-09-27T07:29:44;9.60;87.60
46752;DHT22;32497;48.936;9.270;2022-09-27T07:34:46;9.70;87.00
46752;DHT22;32497;48.936;9.270;2022-09-27T07:39:47;9.70;86.90
46752;DHT22;32497;48.936;9.270;2022-09-27T07:44:50;9.70;87.40
46752;DHT22;32497;48.936;9.270;2022-09-27T07:49:57;9.60;87.90
46752;DHT22;32497;48.936;9.270;2022-09-27T07:55:18;9.60;88.10
46752;DHT22;32497;48.936;9.270;2022-09-27T08:00:31;9.60;88.90
46752;DHT22;32497;48.936;9.270;2022-09-27T08:05:34;9.60;87.80
46752;DHT22;32497;48.936;9.270;2022-09-27T08:10:35;9.70;86.70
46752;DHT22;32497;48.936;9.270;2022-09-27T08:15:39;9.90;87.20
46752;DHT22;32497;48.936;9.270;2022-09-27T08:20:41;10.20;87.00
46752;DHT22;32497;48.936;9.270;2022-09-27T08:25:59;10.50;85.50
46752;DHT22;32497;48.936;9.270;2022-09-27T08:31:04;10.30;86.20
46752;DHT22;32497;48.936;9.270;2022-09-27T08:36:10;10.30;84.50
46752;DHT22;32497;48.936;9.270;2022-09-27T08:41:16;10.50;84.60
46752;DHT22;32497;48.936;9.270;2022-09-27T08:46:32;10.70;84.50
46752;DHT22;32497;48.936;9.270;2022-09-27T08:51:39;10.50;83.70
46752;DHT22;32497;48.936;9.270;2022-09-27T08:56:41;10.40;83.00
46752;DHT22;32497;48.936;9.270;2022-09-27T09:01:43;10.70;82.20
46752;DHT22;32497;48.936;9.270;2022-09-27T09:06:54;10.70;82.00
46752;DHT22;32497;48.936;9.270;2022-09-27T09:12:05;11.00;80.30
46752;DHT22;32497;48.936;9.270;2022-09-27T09:17:19;11.20;80.20
46752;DHT22;32497;48.936;9.270;2022-09-27T09:22:59;11.30;80.10
46752;DHT22;32497;48.936;9.270;2022-09-27T09:28:11;11.70;80.20
46752;DHT22;32497;48.936;9.270;2022-09-27T09:33:24;11.20;82.30
46752;DHT22;32497;48.936;9.270;2022-09-27T09:38:34;11.50;80.60
46752;DHT22;32497;48.936;9.270;2022-09-27T09:43:40;11.90;80.10
46752;DHT22;32497;48.936;9.270;2022-09-27T09:48:48;12.20;78.90
46752;DHT22;32497;48.936;9.270;2022-09-27T09:53:54;12.10;77.70
46752;DHT22;32497;48.936;9.270;2022-09-27T09:59:09;11.90;75.60
46752;DHT22;32497;48.936;9.270;2022-09-27T10:04:19;11.90;75.60
46752;DHT22;32497;48.936;9.270;2022-09-27T10:09:23;12.00;73.20
46752;DHT22;32497;48.936;9.270;2022-09-27T10:15:02;12.10;72.60
46752;DHT22;32497;48.936;9.270;2022-09-27T10:20:06;11.80;71.90
46752;DHT22;32497;48.936;9.270;2022-09-27T10:25:08;12.10;73.50
46752;DHT22;32497;48.936;9.270;2022-09-27T10:30:24;12.20;69.90
46752;DHT22;32497;48.936;9.270;2022-09-27T10:35:35;12.40;71.40
46752;DHT22;32497;48.936;9.270;2022-09-27T10:40:38;12.40;69.40
46752;DHT22;32497;48.936;9.270;2022-09-27T10:45:43;12.20;70.10
46752;DHT22;32497;48.936;9.270;2022-09-27T10:50:57;12.10;71.30
46752;DHT22;32497;48.936;9.270;2022-09-27T10:56:06;11.70;73.50
46752;DHT22;32497;48.936;9.270;2022-09-27T11:01:08;11.60;76.60
46752;DHT22;32497;48.936;9.270;2022-09-27T11:06:32;11.60;75.40
46752;DHT22;32497;48.936;9.270;2022-09-27T11:11:33;11.50;76.60
46752;DHT22;32497;48.936;9.270;2022-09-27T11:16:47;11.40;79.30
46752;DHT22;32497;48.936;9.270;2022-09-27T11:21:58;11.40;81.60
46752;DHT22;32497;48.936;9.270;2022-09-27T11:27:08;10.90;82.10
46752;DHT22;32497;48.936;9.270;2022-09-27T11:32:21;10.50;85.50
46752;DHT22;32497;48.936;9.270;2022-09-27T11:37:34;10.00;89.00
46752;DHT22;32497;48.936;9.270;2022-09-27T11:43:17;9.70;89.10
46752;DHT22;32497;48.936;9.270;2022-09-27T11:48:31;9.70;90.10
46752;DHT22;32497;48.936;9.270;2022-09-27T11:53:48;9.70;91.40
46752;DHT22;32497;48.936;9.270;2022-09-27T11:59:04;9.20;89.80
46752;DHT22;32497;48.936;9.270;2022-09-27T12:04:39;8.80;91.30
46752;DHT22;32497;48.936;9.270;2022-09-27T12:09:50;8.60;92.00
46752;DHT22;32497;48.936;9.270;2022-09-27T12:14:56;8.40;91.40
46752;DHT22;32497;48.936;9.270;2022-09-27T12:20:01;8.30;91.80
46752;DHT22;32497;48.936;9.270;2022-09-27T12:25:16;8.30;92.40
46752;DHT22;32497;48.936;9.270;2022-09-27T12:30:23;8.90;93.00
46752;DHT22;32497;48.936;9.270;2022-09-27T12:35:27;8.90;89.80
46752;DHT22;32497;48.936;9.270;2022-09-27T12:40:33;8.70;90.10
46752;DHT22;32497;48.936;9.270;2022-09-27T12:45:51;8.70;91.30
46752;DHT22;32497;48.936;9.270;2022-09-27T12:50:59;8.80;91.80
46752;DHT22;32497;48.936;9.270;2022-09-27T12:56:20;8.70;91.10
46752;DHT22;32497;48.936;9.270;2022-09-27T13:01:44;8.60;91.50
46752;DHT22;32497;48.936;9.270;2022-09-27T13:07:00;8.70;90.70
46752;DHT22;32497;48.936;9.270;2022-09-27T13:12:12;8.40;90.90
46752;DHT22;32497;48.936;9.270;2022-09-27T13:17:34;8.50;92.60
46752;DHT22;32497;48.936;9.270;2022-09-27T13:22:57;8.40;91.80
46752;DHT22;32497;48.936;9.270;2022-09-27T13:28:34;8.40;92.10
46752;DHT22;32497;48.936;9.270;2022-09-27T13:34:01;8.50;92.30
46752;DHT22;32497;48.936;9.270;2022-09-27T13:44:59;8.50;91.90
46752;DHT22;32497;48.936;9.270;2022-09-27T13:50:17;8.40;91.90
46752;DHT22;32497;48.936;9.270;2022-09-27T13:55:40;8.50;91.80
46752;DHT22;32497;48.936;9.270;2022-09-27T14:00:48;8.70;91.60
46752;DHT22;32497;48.936;9.270;2022-09-27T14:05:52;8.60;91.00
46752;DHT22;32497;48.936;9.270;2022-09-27T14:10:55;8.50;91.00
46752;DHT22;32497;48.936;9.270;2022-09-27T14:16:02;8.50;91.60
46752;DHT22;32497;48.936;9.270;2022-09-27T14:21:14;8.70;91.90
46752;DHT22;32497;48.936;9.270;2022-09-27T14:26:31;9.10;92.20
46752;DHT22;32497;48.936;9.270;2022-09-27T14:31:33;9.10;91.30
46752;DHT22;32497;48.936;9.270;2022-09-27T14:36:47;9.20;91.10
46752;DHT22;32497;48.936;9.270;2022-09-27T14:41:49;9.20;91.60
46752;DHT22;32497;48.936;9.270;2022-09-27T14:47:14;9.10;91.80
46752;DHT22;32497;48.936;9.270;2022-09-27T14:52:19;9.40;92.30
46752;DHT22;32497;48.936;9.270;2022-09-27T14:57:20;9.60;92.00
46752;DHT22;32497;48.936;9.270;2022-09-27T15:02:23;9.70;91.50
46752;DHT22;32497;48.936;9.270;2022-09-27T15:07:25;9.90;90.50
46752;DHT22;32497;48.936;9.270;2022-09-27T15:12:26;10.00;90.90
46752;DHT22;32497;48.936;9.270;2022-09-27T15:17:40;10.50;91.40
46752;DHT22;32497;48.936;9.270;2022-09-27T15:22:42;10.90;88.50
46752;DHT22;32497;48.936;9.270;2022-09-27T15:27:51;10.90;89.10
46752;DHT22;32497;48.936;9.270;2022-09-27T15:33:21;10.80;89.70
46752;DHT22;32497;48.936;9.270;2022-09-27T15:38:27;10.10;87.70
46752;DHT22;32497;48.936;9.270;2022-09-27T15:43:30;9.60;89.80
46752;DHT22;32497;48.936;9.270;2022-09-27T15:48:34;9.70;90.60
46752;DHT22;32497;48.936;9.270;2022-09-27T15:53:44;9.30;89.20
46752;DHT22;32497;48.936;9.270;2022-09-27T15:58:45;9.20;89.70
46752;DHT22;32497;48.936;9.270;2022-09-27T16:03:48;9.30;89.00
46752;DHT22;32497;48.936;9.270;2022-09-27T16:08:49;9.40;88.30
46752;DHT22;32497;48.936;9.270;2022-09-27T16:13:50;9.40;89.00
46752;DHT22;32497;48.936;9.270;2022-09-27T16:18:52;9.40;87.10
46752;DHT22;32497;48.936;9.270;2022-09-27T16:23:53;9.50;87.20
46752;DHT22;32497;48.936;9.270;2022-09-27T16:28:54;9.40;86.00
46752;DHT22;32497;48.936;9.270;2022-09-27T16:33:57;9.50;83.30
46752;DHT22;32497;48.936;9.270;2022-09-27T16:38:59;9.50;83.60
46752;DHT22;32497;48.936;9.270;2022-09-27T16:44:05;9.50;83.90
46752;DHT22;32497;48.936;9.270;2022-09-27T16:49:08;9.40;84.30
46752;DHT22;32497;48.936;9.270;2022-09-27T16:54:09;9.40;84.70
46752;DHT22;32497;48.936;9.270;2022-09-27T16:59:10;9.50;82.70
46752;DHT22;32497;48.936;9.270;2022-09-27T17:04:12;9.40;84.20
46752;DHT22;32497;48.936;9.270;2022-09-27T17:09:13;9.40;86.80
46752;DHT22;32497;48.936;9.270;2022-09-27T17:14:14;9.40;85.90
46752;DHT22;32497;48.936;9.270;2022-09-27T17:19:17;9.40;83.50
46752;DHT22;32497;48.936;9.270;2022-09-27T17:24:18;9.40;84.00
46752;DHT22;32497;48.936;9.270;2022-09-27T17:29:19;9.30;83.00
46752;DHT22;32497;48.936;9.270;2022-09-27T17:34:22;9.30;82.90
46752;DHT22;32497;48.936;9.270;2022-09-27T17:39:23;9.30;81.30
46752;DHT22;32497;48.936;9.270;2022-09-27T17:44:24;9.30;82.80
46752;DHT22;32497;48.936;9.270;2022-09-27T17:49:26;9.20;85.40
46752;DHT22;32497;48.936;9.270;2022-09-27T17:54:27;9.30;84.70
46752;DHT22;32497;48.936;9.270;2022-09-27T17:59:28;9.20;84.60
46752;DHT22;32497;48.936;9.270;2022-09-27T18:04:31;9.20;85.10
46752;DHT22;32497;48.936;9.270;2022-09-27T18:09:32;9.10;85.10
46752;DHT22;32497;48.936;9.270;2022-09-27T18:14:33;9.00;85.20
46752;DHT22;32497;48.936;9.270;2022-09-27T18:19:35;8.90;85.30
46752;DHT22;32497;48.936;9.270;2022-09-27T18:24:36;8.80;86.40
46752;DHT22;32497;48.936;9.270;2022-09-27T18:29:37;8.70;86.10
46752;DHT22;32497;48.936;9.270;2022-09-27T18:34:40;8.80;85.10
46752;DHT22;32497;48.936;9.270;2022-09-27T18:39:41;8.70;84.50
46752;DHT22;32497;48.936;9.270;2022-09-27T18:44:42;8.80;82.20
46752;DHT22;32497;48.936;9.270;2022-09-27T18:49:44;8.90;83.70
46752;DHT22;32497;48.936;9.270;2022-09-27T18:54:45;8.70;84.00
46752;DHT22;32497;48.936;9.270;2022-09-27T18:59:46;8.60;82.90
46752;DHT22;32497;48.936;9.270;2022-09-27T19:04:49;8.60;83.50
46752;DHT22;32497;48.936;9.270;2022-09-27T19:09:50;8.40;83.90
46752;DHT22;32497;48.936;9.270;2022-09-27T19:14:51;8.20;85.20
46752;DHT22;32497;48.936;9.270;2022-09-27T19:19:53;8.20;84.30
46752;DHT22;32497;48.936;9.270;2022-09-27T19:24:54;8.20;84.00
46752;DHT22;32497;48.936;9.270;2022-09-27T19:29:55;8.20;83.80
46752;DHT22;32497;48.936;9.270;2022-09-27T19:34:58;8.10;84.40
46752;DHT22;32497;48.936;9.270;2022-09-27T19:39:59;7.90;84.80
46752;DHT22;32497;48.936;9.270;2022-09-27T19:45:00;7.70;85.40
46752;DHT22;32497;48.936;9.270;2022-09-27T19:50:02;7.70;86.40
46752;DHT22;32497;48.936;9.270;2022-09-27T19:55:04;7.60;86.80
46752;DHT22;32497;48.936;9.270;2022-09-27T20:00:07;7.50;87.40
46752;DHT22;32497;48.936;9.270;2022-09-27T20:05:09;7.40;87.50
46752;DHT22;32497;48.936;9.270;2022-09-27T20:10:11;7.20;87.60
46752;DHT22;32497;48.936;9.270;2022-09-27T20:15:12;7.30;87.60
46752;DHT22;32497;48.936;9.270;2022-09-27T20:20:14;7.30;87.90
46752;DHT22;32497;48.936;9.270;2022-09-27T20:25:16;7.40;87.10
46752;DHT22;32497;48.936;9.270;2022-09-27T20:30:17;7.50;87.30
46752;DHT22;32497;48.936;9.270;2022-09-27T20:35:19;7.60;87.00
46752;DHT22;32497;48.936;9.270;2022-09-27T20:40:20;7.50;87.20
46752;DHT22;32497;48.936;9.270;2022-09-27T20:45:21;7.40;86.90
46752;DHT22;32497;48.936;9.270;2022-09-27T20:50:23;7.30;86.80
46752;DHT22;32497;48.936;9.270;2022-09-27T20:55:24;7.30;87.00
46752;DHT22;32497;48.936;9.270;2022-09-27T21:00:25;7.40;87.00
46752;DHT22;32497;48.936;9.270;2022-09-27T21:05:28;7.50;87.10
46752;DHT22;32497;48.936;9.270;2022-09-27T21:10:29;7.50;87.20
46752;DHT22;32497;48.936;9.270;2022-09-27T21:15:30;7.60;87.50
46752;DHT22;32497;48.936;9.270;2022-09-27T21:20:33;7.60;87.50
46752;DHT22;32497;48.936;9.270;2022-09-27T21:25:34;7.50;87.70
46752;DHT22;32497;48.936;9.270;2022-09-27T21:30:35;7.50;87.90
46752;DHT22;32497;48.936;9.270;2022-09-27T21:35:37;7.50;87.90
46752;DHT22;32497;48.936;9.270;2022-09-27T21:40:38;7.50;87.90
46752;DHT22;32497;48.936;9.270;2022-09-27T21:45:39;7.50;88.10
46752;DHT22;32497;48.936;9.270;2022-09-27T21:50:42;7.60;88.20
46752;DHT22;32497;48.936;9.270;2022-09-27T21:55:53;7.60;88.10
46752;DHT22;32497;48.936;9.270;2022-09-27T22:00:54;7.80;88.40
46752;DHT22;32497;48.936;9.270;2022-09-27T22:05:56;7.90;88.20
46752;DHT22;32497;48.936;9.270;2022-09-27T22:10:57;7.90;88.30
46752;DHT22;32497;48.936;9.270;2022-09-27T22:16:02;8.00;88.60
46752;DHT22;32497;48.936;9.270;2022-09-27T22:21:07;8.10;89.00
46752;DHT22;32497;48.936;9.270;2022-09-27T22:26:12;8.10;89.60
46752;DHT22;32497;48.936;9.270;2022-09-27T22:31:15;8.00;89.90
46752;DHT22;32497;48.936;9.270;2022-09-27T22:36:18;8.00;90.10
46752;DHT22;32497;48.936;9.270;2022-09-27T22:41:19;7.90;90.20
46752;DHT22;32497;48.936;9.270;2022-09-27T22:46:20;7.90;90.90
46752;DHT22;32497;48.936;9.270;2022-09-27T22:51:23;7.90;91.50
46752;DHT22;32497;48.936;9.270;2022-09-27T22:56:24;7.90;91.80
46752;DHT22;32497;48.936;9.270;2022-09-27T23:01:25;7.90;92.00
46752;DHT22;32497;48.936;9.270;2022-09-27T23:06:27;7.90;92.10
46752;DHT22;32497;48.936;9.270;2022-09-27T23:11:29;7.90;92.30
46752;DHT22;32497;48.936;9.270;2022-09-27T23:16:32;7.90;92.50
46752;DHT22;32497;48.936;9.270;2022-09-27T23:21:34;7.90;92.50
46752;DHT22;32497;48.936;9.270;2022-09-27T23:26:36;7.90;92.40
46752;DHT22;32497;48.936;9.270;2022-09-27T23:31:37;7.90;92.50
46752;DHT22;32497;48.936;9.270;2022-09-27T23:36:39;8.00;92.50
46752;DHT22;32497;48.936;9.270;2022-09-27T23:41:40;8.00;92.50
46752;DHT22;32497;48.936;9.270;2022-09-27T23:46:41;8.10;92.40
46752;DHT22;32497;48.936;9.270;2022-09-27T23:51:44;8.10;92.30
46752;DHT22;32497;48.936;9.270;2022-09-27T23:56:45;8.10;92.30
